Terminal Aerodrome Forecast
Issued by NWS Paducah, KY

Home | Current Version | Previous Version | Text Only | Print | Product List | Glossary On
Versions: 1 2 3 4 5 6 7 8 9 10 11 12 13 14 15 16 17 18 19
894
FTUS43 KPAH 142340
TAFEVV
TAF
KEVV 142340Z 1500/1524 16006KT 6SM BR SCT009 OVC015
     FM150500 VRB03KT 5SM BR OVC009
     FM150800 VRB03KT 3SM BR OVC008
     FM151600 VRB03KT 5SM BR BKN012=

USA.gov is the U.S. government's official web portal to all federal, state and local government web resources and services.